createdAt,value
2022-12-18T00:00:13.611Z,102213.25
2022-12-18T00:02:22.919Z,102210.78
2022-12-18T00:04:28.044Z,102208.38
2022-12-18T00:06:33.568Z,102204.72
2022-12-18T00:08:36.915Z,102204.84
2022-12-18T00:10:41.631Z,102201.81
2022-12-18T00:12:45.021Z,102206.16
2022-12-18T00:14:48.473Z,102211.25
2022-12-18T00:16:51.935Z,102207.97
2022-12-18T00:18:59.724Z,102183.63
2022-12-18T00:21:04.250Z,102218.00
2022-12-18T00:23:08.342Z,102220.72
2022-12-18T00:25:11.681Z,102219.34
2022-12-18T00:27:16.316Z,102226.22
2022-12-18T00:29:19.638Z,102228.59
2022-12-18T00:31:25.631Z,102215.69
2022-12-18T00:33:30.354Z,102222.59
2022-12-18T00:35:33.805Z,102220.97
2022-12-18T00:37:37.151Z,102223.53
2022-12-18T00:39:41.578Z,102223.66
2022-12-18T00:42:02.482Z,102223.53
2022-12-18T00:44:08.775Z,102225.72
2022-12-18T00:46:12.462Z,102222.59
2022-12-18T00:48:15.879Z,102219.88
2022-12-18T00:50:19.698Z,102214.56
2022-12-18T00:52:23.015Z,102207.72
2022-12-18T00:54:26.408Z,102201.81
2022-12-18T00:56:31.695Z,102200.25
2022-12-18T00:58:37.847Z,102212.75
2022-12-18T01:00:43.239Z,102192.09
2022-12-18T01:02:48.262Z,102209.47
2022-12-18T01:04:51.722Z,102197.72
2022-12-18T01:06:56.880Z,102209.94
2022-12-18T01:09:00.247Z,102215.78
2022-12-18T01:11:08.846Z,102213.59
2022-12-18T01:13:12.305Z,102177.53
2022-12-18T01:15:17.795Z,102196.16
2022-12-18T01:17:23.558Z,102199.69
2022-12-18T01:19:27.055Z,102199.94
2022-12-18T01:21:31.671Z,102207.97
2022-12-18T01:23:40.902Z,102208.97
2022-12-18T01:25:44.635Z,102216.78
2022-12-18T01:27:47.971Z,102218.25
2022-12-18T01:29:51.864Z,102219.66
2022-12-18T01:31:57.685Z,102220.06
2022-12-18T01:34:04.135Z,102192.28
2022-12-18T01:36:07.874Z,102208.25
2022-12-18T01:38:11.758Z,102210.59
2022-12-18T01:40:15.115Z,102206.03
2022-12-18T01:42:18.632Z,102209.88
2022-12-18T01:44:58.892Z,102213.25
2022-12-18T01:47:02.457Z,102211.03
2022-12-18T01:49:07.180Z,102208.50
2022-12-18T01:51:13.378Z,102204.97
2022-12-18T01:53:20.863Z,102205.78
2022-12-18T01:55:26.883Z,102144.34
2022-12-18T01:57:31.342Z,102197.97
2022-12-18T01:59:37.226Z,102200.59
2022-12-18T02:01:40.741Z,102198.44
2022-12-18T02:03:45.775Z,102184.88
2022-12-18T02:06:00.510Z,102200.59
2022-12-18T02:08:12.478Z,102213.81
2022-12-18T02:10:20.995Z,102210.78
2022-12-18T02:12:27.428Z,102208.06
2022-12-18T02:14:39.011Z,102202.63
2022-12-18T02:16:50.856Z,102204.13
2022-12-18T02:19:00.084Z,102199.75
2022-12-18T02:21:14.554Z,102202.97
2022-12-18T02:23:35.654Z,102197.53
2022-12-18T02:26:08.702Z,102199.50
2022-12-18T02:28:17.570Z,102201.72
2022-12-18T02:30:22.656Z,102206.94
2022-12-18T02:32:30.380Z,102203.22
2022-12-18T02:34:39.305Z,102205.69
2022-12-18T02:36:48.086Z,102202.38
2022-12-18T02:38:54.274Z,102191.72
2022-12-18T02:40:59.645Z,102188.91
2022-12-18T02:43:10.297Z,102186.53
2022-12-18T02:45:16.115Z,102186.69
2022-12-18T02:47:24.098Z,102176.91
2022-12-18T02:49:37.024Z,102171.00
2022-12-18T02:51:49.915Z,102171.41
2022-12-18T02:53:58.353Z,102176.16
2022-12-18T02:56:07.985Z,102178.25
2022-12-18T02:58:19.491Z,102191.06
2022-12-18T03:00:35.776Z,102193.09
2022-12-18T03:02:47.251Z,102193.84
2022-12-18T03:05:00.519Z,102195.50
2022-12-18T03:07:07.759Z,102185.78
2022-12-18T03:09:15.993Z,102184.13
2022-12-18T03:11:39.761Z,102179.22
2022-12-18T03:13:47.833Z,102176.81
2022-12-18T03:15:57.558Z,102172.03
2022-12-18T03:18:04.871Z,102175.25
2022-12-18T03:20:14.269Z,102177.22
2022-12-18T03:22:18.284Z,102171.78
2022-12-18T03:24:29.458Z,102168.00
2022-12-18T03:26:34.547Z,102169.44
2022-12-18T03:28:44.111Z,102165.78
2022-12-18T03:30:51.317Z,102166.56
2022-12-18T03:33:02.822Z,102155.59
2022-12-18T03:35:09.174Z,102148.88
2022-12-18T03:37:14.605Z,102150.59
2022-12-18T03:39:18.594Z,102036.16
2022-12-18T03:41:34.352Z,102156.38
2022-12-18T03:44:02.265Z,102160.88
2022-12-18T03:46:10.198Z,102150.75
2022-12-18T03:48:21.110Z,102153.38
2022-12-18T03:50:35.632Z,102165.78
2022-12-18T03:52:44.637Z,102158.00
2022-12-18T03:54:49.450Z,102164.75
2022-12-18T03:57:00.504Z,102164.25
2022-12-18T03:59:07.896Z,102150.28
2022-12-18T04:01:15.437Z,102145.53
2022-12-18T04:03:26.183Z,102132.19
2022-12-18T04:05:32.491Z,102074.69
2022-12-18T04:07:36.870Z,102143.38
2022-12-18T04:09:43.255Z,102141.34
2022-12-18T04:11:48.428Z,102142.47
2022-12-18T04:13:57.762Z,102135.47
2022-12-18T04:16:01.344Z,102136.56
2022-12-18T04:18:05.649Z,102125.38
2022-12-18T04:20:19.047Z,102134.44
2022-12-18T04:22:23.365Z,102136.78
2022-12-18T04:24:31.988Z,102139.94
2022-12-18T04:26:48.398Z,102133.91
2022-12-18T04:28:55.015Z,102143.78
2022-12-18T04:30:58.498Z,102142.97
2022-12-18T04:33:01.917Z,102137.31
2022-12-18T04:35:11.475Z,102139.44
2022-12-18T04:37:19.184Z,102142.66
2022-12-18T04:39:24.714Z,102143.03
2022-12-18T04:41:31.190Z,102147.75
2022-12-18T04:43:35.331Z,102147.31
2022-12-18T04:45:38.652Z,102144.94
2022-12-18T04:47:42.169Z,102139.59
2022-12-18T04:49:47.474Z,102151.41
2022-12-18T04:51:51.023Z,102145.75
2022-12-18T04:53:55.832Z,102141.16
2022-12-18T04:56:10.428Z,102138.09
2022-12-18T04:58:13.784Z,102134.16
2022-12-18T05:00:17.641Z,102127.81
2022-12-18T05:02:21.055Z,102135.78
2022-12-18T05:04:24.550Z,102124.69
2022-12-18T05:06:27.850Z,102127.41
2022-12-18T05:08:31.535Z,102131.41
2022-12-18T05:10:38.307Z,102128.66
2022-12-18T05:12:55.835Z,102119.84
2022-12-18T05:14:59.238Z,102112.56
2022-12-18T05:17:02.571Z,102119.84
2022-12-18T05:19:05.947Z,102123.47
2022-12-18T05:21:09.595Z,102126.34
2022-12-18T05:23:13.017Z,102131.38
2022-12-18T05:25:16.990Z,102126.84
2022-12-18T05:27:21.705Z,102118.56
2022-12-18T05:29:25.188Z,102114.31
2022-12-18T05:31:28.769Z,102117.31
2022-12-18T05:33:34.192Z,102109.84
2022-12-18T05:35:38.281Z,102121.75
2022-12-18T05:37:43.504Z,102121.00
2022-12-18T05:39:47.018Z,102127.88
2022-12-18T05:41:50.321Z,102130.44
2022-12-18T05:43:54.976Z,102133.75
2022-12-18T05:45:58.799Z,102145.72
2022-12-18T05:48:02.176Z,102146.22
2022-12-18T05:50:06.500Z,102148.91
2022-12-18T05:52:09.931Z,102135.84
2022-12-18T05:54:13.372Z,102146.94
2022-12-18T05:56:18.941Z,102146.16
2022-12-18T05:58:22.288Z,102148.28
2022-12-18T06:00:27.013Z,102151.41
2022-12-18T06:02:30.390Z,102161.78
2022-12-18T06:04:33.843Z,102170.66
2022-12-18T06:06:37.704Z,102173.84
2022-12-18T06:08:46.021Z,102150.50
2022-12-18T06:10:53.220Z,102147.78
2022-12-18T06:12:56.585Z,102172.34
2022-12-18T06:14:59.885Z,102171.69
2022-12-18T06:17:04.643Z,102175.13
2022-12-18T06:19:08.067Z,102186.97
2022-12-18T06:21:11.517Z,102186.22
2022-12-18T06:23:14.849Z,102186.06
2022-12-18T06:25:18.446Z,102194.59
2022-12-18T06:27:22.123Z,102194.94
2022-12-18T06:29:25.492Z,102196.31
2022-12-18T06:31:28.891Z,102192.06
2022-12-18T06:33:34.424Z,102188.25
2022-12-18T06:35:37.887Z,102185.78
2022-12-18T06:37:41.295Z,102187.75
2022-12-18T06:39:44.625Z,102177.16
2022-12-18T06:41:47.965Z,102174.28
2022-12-18T06:43:55.611Z,102172.75
2022-12-18T06:46:01.933Z,102177.16
2022-12-18T06:48:08.489Z,102169.72
2022-12-18T06:50:13.741Z,102171.09
2022-12-18T06:52:19.926Z,102158.63
2022-12-18T06:54:23.452Z,102164.19
2022-12-18T06:56:27.324Z,102168.47
2022-12-18T06:58:30.682Z,102162.81
2022-12-18T07:00:34.024Z,102161.31
2022-12-18T07:02:37.702Z,102163.31
2022-12-18T07:04:41.093Z,102162.31
2022-12-18T07:06:45.801Z,102173.66
2022-12-18T07:08:50.518Z,102160.59
2022-12-18T07:10:56.406Z,102159.88
2022-12-18T07:12:59.926Z,102155.56
2022-12-18T07:15:03.317Z,102153.25
2022-12-18T07:17:06.804Z,102162.88
2022-12-18T07:19:10.447Z,102160.97
2022-12-18T07:21:17.829Z,102154.97
2022-12-18T07:23:22.484Z,102159.75
2022-12-18T07:25:25.864Z,102157.03
2022-12-18T07:27:29.159Z,102147.19
2022-12-18T07:29:32.744Z,102155.88
2022-12-18T07:31:36.774Z,102157.84
2022-12-18T07:33:40.794Z,102137.75
2022-12-18T07:35:44.557Z,102154.53
2022-12-18T07:37:48.157Z,102153.81
2022-12-18T07:39:52.804Z,102154.69
2022-12-18T07:42:10.078Z,102150.09
2022-12-18T07:44:16.778Z,102146.69
2022-12-18T07:46:20.284Z,102148.19
2022-12-18T07:48:23.700Z,102146.81
2022-12-18T07:50:26.973Z,102141.78
2022-12-18T07:52:30.299Z,102142.09
2022-12-18T07:54:34.343Z,102143.34
2022-12-18T07:56:39.089Z,102150.47
2022-12-18T07:58:42.556Z,102156.47
2022-12-18T08:00:45.826Z,102156.41
2022-12-18T08:02:49.211Z,102144.91
2022-12-18T08:04:52.611Z,102156.16
2022-12-18T08:06:56.015Z,102137.09
2022-12-18T08:08:59.434Z,102125.78
2022-12-18T08:11:03.667Z,102116.09
2022-12-18T08:13:08.405Z,102120.44
2022-12-18T08:15:12.136Z,102127.56
2022-12-18T08:17:15.497Z,102124.69
2022-12-18T08:19:18.804Z,102128.00
2022-12-18T08:21:24.263Z,102121.25
2022-12-18T08:23:28.851Z,102117.50
2022-12-18T08:25:32.280Z,102111.31
2022-12-18T08:27:35.894Z,102108.31
2022-12-18T08:29:40.560Z,102101.72
2022-12-18T08:31:43.992Z,102093.03
2022-12-18T08:33:49.813Z,102092.44
2022-12-18T08:35:53.081Z,102081.84
2022-12-18T08:37:56.408Z,102083.31
2022-12-18T08:39:59.698Z,102086.19
2022-12-18T08:42:20.574Z,102085.03
2022-12-18T08:44:42.185Z,102083.41
2022-12-18T08:46:46.841Z,102067.28
2022-12-18T08:48:52.041Z,102093.41
2022-12-18T08:50:56.659Z,102102.00
2022-12-18T08:53:00.000Z,102097.72
2022-12-18T08:55:03.295Z,102092.88
2022-12-18T08:57:06.603Z,102078.53
2022-12-18T08:59:15.962Z,102085.19
2022-12-18T09:01:23.534Z,102066.41
2022-12-18T09:03:28.325Z,102078.50
2022-12-18T09:05:32.588Z,102085.47
2022-12-18T09:07:35.967Z,102084.31
2022-12-18T09:09:39.429Z,102091.09
2022-12-18T09:11:42.738Z,102082.53
2022-12-18T09:13:46.036Z,102086.00
2022-12-18T09:15:51.448Z,102077.56
2022-12-18T09:17:54.877Z,102073.69
2022-12-18T09:19:59.624Z,102065.88
2022-12-18T09:22:03.225Z,102075.66
2022-12-18T09:24:09.159Z,102080.16
2022-12-18T09:26:12.702Z,102062.13
2022-12-18T09:28:18.235Z,102068.19
2022-12-18T09:30:21.588Z,102071.25
2022-12-18T09:32:24.883Z,102072.00
2022-12-18T09:34:28.319Z,102078.22
2022-12-18T09:36:32.971Z,102071.31
2022-12-18T09:38:37.177Z,102065.94
2022-12-18T09:40:44.800Z,102061.28
2022-12-18T09:42:55.908Z,102058.75
2022-12-18T09:45:01.383Z,101998.00
2022-12-18T09:47:14.590Z,102047.81
2022-12-18T09:49:20.672Z,101990.06
2022-12-18T09:51:30.656Z,102039.81
2022-12-18T09:53:40.042Z,102044.34
2022-12-18T09:55:46.899Z,102045.38
2022-12-18T09:57:55.417Z,102053.94
2022-12-18T10:00:04.018Z,102054.84
2022-12-18T10:02:22.276Z,102032.75
2022-12-18T10:04:26.315Z,102039.50
2022-12-18T10:06:37.613Z,102030.97
2022-12-18T10:08:51.173Z,101963.19
2022-12-18T10:10:59.154Z,102034.59
2022-12-18T10:13:15.271Z,102030.63
2022-12-18T10:15:26.417Z,102033.50
2022-12-18T10:17:40.587Z,102021.16
2022-12-18T10:19:50.359Z,102018.00
2022-12-18T10:22:04.976Z,102014.06
2022-12-18T10:24:22.433Z,102008.00
2022-12-18T10:26:26.964Z,102007.22
2022-12-18T10:28:32.185Z,102004.94
2022-12-18T10:30:35.567Z,102002.06
2022-12-18T10:32:38.880Z,102005.03
2022-12-18T10:34:42.817Z,102014.47
2022-12-18T10:36:46.258Z,102025.63
2022-12-18T10:38:49.624Z,102018.06
2022-12-18T10:40:56.876Z,102007.34
2022-12-18T10:43:06.757Z,102008.84
2022-12-18T10:45:13.653Z,102007.31
2022-12-18T10:47:20.901Z,102008.66
2022-12-18T10:49:27.463Z,102009.13
2022-12-18T10:51:34.490Z,102003.53
2022-12-18T10:53:39.379Z,102008.31
2022-12-18T10:55:47.898Z,101997.59
2022-12-18T10:57:53.094Z,101990.50
2022-12-18T10:59:58.527Z,101987.66
2022-12-18T11:02:02.711Z,101987.94
2022-12-18T11:04:11.311Z,101965.97
2022-12-18T11:06:16.879Z,101992.31
2022-12-18T11:08:24.257Z,101980.81
2022-12-18T11:10:32.517Z,101973.28
2022-12-18T11:12:35.832Z,101980.78
2022-12-18T11:14:48.285Z,101972.03
2022-12-18T11:19:28.430Z,101981.00
2022-12-18T11:21:31.930Z,101974.88
2022-12-18T11:23:36.202Z,101976.22
2022-12-18T11:25:40.215Z,101978.78
2022-12-18T11:27:50.586Z,101972.00
2022-12-18T11:30:08.759Z,101974.69
2022-12-18T11:32:29.279Z,101963.41
2022-12-18T11:34:34.080Z,101972.00
2022-12-18T11:36:43.098Z,101956.47
2022-12-18T11:38:49.776Z,101957.09
2022-12-18T11:40:58.874Z,101955.16
2022-12-18T11:43:09.508Z,101948.56
2022-12-18T11:45:28.558Z,101952.16
2022-12-18T11:47:41.272Z,101941.44
2022-12-18T11:49:49.045Z,101940.69
2022-12-18T11:51:57.719Z,101944.75
2022-12-18T11:54:02.314Z,101939.34
2022-12-18T11:56:22.071Z,101930.50
2022-12-18T11:58:46.817Z,101925.38
2022-12-18T12:00:59.859Z,101923.63
2022-12-18T12:03:38.968Z,101918.66
2022-12-18T12:05:53.814Z,101930.22
2022-12-18T12:08:04.522Z,101922.97
2022-12-18T12:10:19.522Z,101929.59
2022-12-18T12:12:48.618Z,101908.78
2022-12-18T12:15:01.880Z,101923.03
2022-12-18T12:17:18.181Z,101923.91
2022-12-18T12:19:34.482Z,101934.03
2022-12-18T12:21:42.065Z,101932.22
2022-12-18T12:23:55.952Z,101921.88
2022-12-18T12:26:04.173Z,101924.88
2022-12-18T12:28:20.155Z,101913.75
2022-12-18T12:30:32.693Z,101911.66
2022-12-18T12:32:47.771Z,101875.03
2022-12-18T12:35:09.633Z,101899.41
2022-12-18T12:37:24.801Z,101894.50
2022-12-18T12:39:33.300Z,101827.41
2022-12-18T12:41:56.490Z,101906.81
2022-12-18T12:44:03.820Z,101901.09
2022-12-18T12:46:09.042Z,101885.38
2022-12-18T12:48:19.072Z,101829.41
2022-12-18T12:50:24.566Z,101893.53
2022-12-18T12:52:35.504Z,101898.19
2022-12-18T12:54:39.121Z,101889.16
2022-12-18T12:56:47.950Z,101883.91
2022-12-18T12:59:00.459Z,101887.38
2022-12-18T13:01:17.263Z,101896.97
2022-12-18T13:03:38.500Z,101898.75
2022-12-18T13:05:50.392Z,101899.53
2022-12-18T13:07:58.515Z,101903.47
2022-12-18T13:10:36.832Z,101911.88
2022-12-18T13:12:58.598Z,101911.44
2022-12-18T13:15:21.839Z,101894.91
2022-12-18T13:17:31.854Z,101899.38
2022-12-18T13:19:37.338Z,101896.06
2022-12-18T13:21:40.783Z,101901.31
2022-12-18T13:23:45.037Z,101892.25
2022-12-18T13:25:48.804Z,101894.81
2022-12-18T13:28:03.602Z,101890.06
2022-12-18T13:30:51.742Z,101905.00
2022-12-18T13:34:02.127Z,101895.09
2022-12-18T13:36:16.218Z,101879.59
2022-12-18T13:38:24.572Z,101876.22
2022-12-18T13:40:57.170Z,101861.63
2022-12-18T13:43:15.654Z,101852.47
2022-12-18T13:45:46.890Z,101863.34
2022-12-18T13:47:51.981Z,101850.25
2022-12-18T13:49:56.793Z,101856.00
2022-12-18T13:52:02.189Z,101851.00
2022-12-18T13:54:18.605Z,101832.69
2022-12-18T13:56:25.774Z,101835.66
2022-12-18T13:58:30.490Z,101848.59
2022-12-18T14:00:33.807Z,101845.41
2022-12-18T14:02:37.181Z,101843.41
2022-12-18T14:04:41.066Z,101841.31
2022-12-18T14:06:47.421Z,101835.47
2022-12-18T14:08:53.321Z,101823.28
2022-12-18T14:10:57.464Z,101829.78
2022-12-18T14:13:07.821Z,101822.09
2022-12-18T14:15:25.252Z,101815.25
2022-12-18T14:17:28.797Z,101826.13
2022-12-18T14:19:33.895Z,101821.41
2022-12-18T14:21:39.712Z,101818.56
2022-12-18T14:23:44.570Z,101815.31
2022-12-18T14:25:49.522Z,101815.38
2022-12-18T14:27:55.401Z,101823.41
2022-12-18T14:29:59.161Z,101807.00
2022-12-18T14:32:18.894Z,101809.84
2022-12-18T14:34:28.317Z,101802.03
2022-12-18T14:36:31.839Z,101807.13
2022-12-18T14:38:36.303Z,101814.50
2022-12-18T14:40:39.669Z,101804.59
2022-12-18T14:42:45.474Z,101809.97
2022-12-18T14:45:12.912Z,101805.47
2022-12-18T14:47:16.314Z,101802.66
2022-12-18T14:49:25.197Z,101794.84
2022-12-18T14:51:32.034Z,101796.63
2022-12-18T14:53:41.465Z,101783.72
2022-12-18T14:55:48.778Z,101783.72
2022-12-18T14:57:56.032Z,101773.47
2022-12-18T15:00:07.135Z,101772.09
2022-12-18T15:02:20.932Z,101779.63
2022-12-18T15:04:28.389Z,101789.78
2022-12-18T15:06:34.645Z,101783.28
2022-12-18T15:08:39.058Z,101782.25
2022-12-18T15:10:49.742Z,101779.41
2022-12-18T15:13:10.043Z,101784.34
2022-12-18T15:15:47.963Z,101784.53
2022-12-18T15:17:51.384Z,101799.53
2022-12-18T15:20:02.157Z,101792.84
2022-12-18T15:22:06.732Z,101781.19
2022-12-18T15:24:19.978Z,101779.06
2022-12-18T15:26:24.171Z,101780.25
2022-12-18T15:28:33.437Z,101774.56
2022-12-18T15:30:37.565Z,101756.78
2022-12-18T15:32:44.757Z,101746.28
2022-12-18T15:34:48.043Z,101768.34
2022-12-18T15:36:52.458Z,101765.78
2022-12-18T15:39:01.328Z,101742.53
2022-12-18T15:41:14.459Z,101752.22
2022-12-18T15:43:35.618Z,101747.78
2022-12-18T15:45:40.527Z,101761.69
2022-12-18T15:47:44.365Z,101760.66
2022-12-18T15:49:50.751Z,101751.72
2022-12-18T15:51:55.855Z,101764.25
2022-12-18T15:54:01.748Z,101766.81
2022-12-18T15:56:24.767Z,101702.56
2022-12-18T15:58:28.072Z,101761.78
2022-12-18T16:00:31.920Z,101768.81
2022-12-18T16:02:36.896Z,101767.47
2022-12-18T16:04:40.372Z,101762.34
2022-12-18T16:07:58.422Z,101759.97
2022-12-18T16:10:02.952Z,101759.25
2022-12-18T16:12:07.301Z,101762.31
2022-12-18T16:15:24.094Z,101768.91
2022-12-18T16:25:18.208Z,101769.19
2022-12-18T16:27:37.568Z,101771.19
2022-12-18T16:39:46.534Z,101765.03
2022-12-18T16:41:50.376Z,101770.16
2022-12-18T16:43:55.390Z,101769.69
2022-12-18T17:16:03.680Z,101777.72
2022-12-18T17:18:07.085Z,101772.78
2022-12-18T17:20:11.232Z,101771.59
2022-12-18T17:22:14.529Z,101765.00
2022-12-18T17:24:18.423Z,101767.38
2022-12-18T17:26:22.873Z,101765.88
2022-12-18T17:28:26.662Z,101769.94
2022-12-18T17:30:31.084Z,101762.00
2022-12-18T17:32:35.882Z,101758.41
2022-12-18T17:34:39.305Z,101751.94
2022-12-18T17:36:42.667Z,101746.56
2022-12-18T17:38:51.624Z,101745.19
2022-12-18T17:40:56.240Z,101738.59
2022-12-18T17:42:59.926Z,101732.88
2022-12-18T17:45:03.231Z,101724.00
2022-12-18T17:47:06.710Z,101721.00
2022-12-18T17:49:12.491Z,101743.72
2022-12-18T17:51:17.568Z,101729.00
2022-12-18T17:53:20.893Z,101742.41
2022-12-18T17:55:24.418Z,101738.31
2022-12-18T18:01:49.393Z,101767.78
2022-12-18T18:03:54.066Z,101765.69
2022-12-18T18:06:00.334Z,101698.06
2022-12-18T18:08:03.745Z,101756.66
2022-12-18T18:10:09.115Z,101725.66
2022-12-18T18:12:30.713Z,101755.78
2022-12-18T18:14:34.126Z,101757.91
2022-12-18T18:16:40.780Z,101757.91
2022-12-18T18:18:44.196Z,101754.59
2022-12-18T18:20:47.489Z,101769.44
2022-12-18T18:22:52.147Z,101762.84
2022-12-18T18:24:55.509Z,101772.16
2022-12-18T18:26:59.956Z,101772.44
2022-12-18T18:29:05.214Z,101764.94
2022-12-18T18:31:10.549Z,101760.28
2022-12-18T18:33:14.130Z,101767.66
2022-12-18T18:35:45.022Z,101767.50
2022-12-18T18:37:41.089Z,101770.78
2022-12-18T18:39:46.901Z,101768.69
2022-12-18T18:41:50.288Z,101769.44
2022-12-18T18:43:56.562Z,101756.19
2022-12-18T18:46:01.137Z,101729.34
2022-12-18T18:48:05.563Z,101749.44
2022-12-18T18:50:09.513Z,101760.41
2022-12-18T18:52:12.892Z,101747.50
2022-12-18T18:54:16.221Z,101753.22
2022-12-18T18:58:45.868Z,101752.16
2022-12-18T19:00:56.252Z,101755.28
2022-12-18T19:03:00.970Z,101753.47
2022-12-18T19:05:04.798Z,101747.91
2022-12-18T19:07:08.668Z,101750.59
2022-12-18T19:09:12.471Z,101749.50
2022-12-18T19:11:36.558Z,101732.06
2022-12-18T19:13:41.854Z,101741.53
2022-12-18T19:15:45.918Z,101741.44
2022-12-18T19:17:49.503Z,101729.00
2022-12-18T19:19:53.140Z,101736.91
2022-12-18T19:21:56.458Z,101726.97
2022-12-18T19:24:00.226Z,101726.31
2022-12-18T19:26:26.960Z,101728.31
2022-12-18T19:28:28.748Z,101741.19
2022-12-18T19:30:33.556Z,101741.03
2022-12-18T19:32:36.926Z,101746.59
2022-12-18T19:34:40.420Z,101727.97
2022-12-18T19:36:44.130Z,101736.09
2022-12-18T19:38:48.432Z,101733.06
2022-12-18T19:40:52.875Z,101726.94
2022-12-18T19:42:56.497Z,101720.56
2022-12-18T19:44:59.973Z,101725.84
2022-12-18T19:47:04.870Z,101733.97
2022-12-18T19:49:08.364Z,101720.25
2022-12-18T19:51:15.275Z,101685.78
2022-12-18T19:53:18.757Z,101722.19
2022-12-18T19:55:22.301Z,101716.66
2022-12-18T19:57:25.778Z,101719.03
2022-12-18T19:59:29.274Z,101727.31
2022-12-18T20:01:33.689Z,101733.56
2022-12-18T20:03:38.872Z,101736.44
2022-12-18T20:05:42.603Z,101734.16
2022-12-18T20:07:46.088Z,101727.06
2022-12-18T20:09:51.666Z,101736.09
2022-12-18T20:12:00.512Z,101746.63
2022-12-18T20:14:04.976Z,101739.84
2022-12-18T20:16:08.945Z,101733.91
2022-12-18T20:18:12.388Z,101751.59
2022-12-18T20:20:17.256Z,101743.53
2022-12-18T20:22:21.853Z,101745.63
2022-12-18T20:24:25.250Z,101742.78
2022-12-18T20:26:28.905Z,101731.47
2022-12-18T20:28:32.272Z,101730.56
2022-12-18T20:30:35.697Z,101728.09
2022-12-18T20:32:39.056Z,101725.53
2022-12-18T20:34:42.922Z,101723.88
2022-12-18T20:36:47.734Z,101720.84
2022-12-18T20:38:52.886Z,101724.16
2022-12-18T20:41:02.269Z,101728.38
2022-12-18T20:43:07.004Z,101727.63
2022-12-18T20:45:10.926Z,101728.81
2022-12-18T20:47:14.289Z,101730.59
2022-12-18T20:49:18.026Z,101741.03
2022-12-18T20:51:22.694Z,101740.50
2022-12-18T20:53:27.437Z,101745.72
2022-12-18T20:55:30.731Z,101753.84
2022-12-18T20:57:34.470Z,101736.94
2022-12-18T20:59:44.786Z,101752.56
2022-12-18T21:01:53.951Z,101741.94
2022-12-18T21:03:57.303Z,101743.41
2022-12-18T21:06:00.803Z,101750.44
2022-12-18T21:08:04.181Z,101755.84
2022-12-18T21:10:10.040Z,101746.50
2022-12-18T21:12:35.103Z,101739.56
2022-12-18T21:14:46.246Z,101745.59
2022-12-18T21:16:55.206Z,101735.63
2022-12-18T21:18:59.036Z,101732.16
2022-12-18T21:21:02.579Z,101729.25
2022-12-18T21:23:15.978Z,101731.41
2022-12-18T21:25:21.456Z,101732.31
2022-12-18T21:27:24.844Z,101718.13
2022-12-18T21:29:28.217Z,101725.19
2022-12-18T21:31:34.337Z,101736.44
2022-12-18T21:33:37.720Z,101732.22
2022-12-18T21:35:41.006Z,101730.69
2022-12-18T21:37:44.317Z,101726.22
2022-12-18T21:39:48.100Z,101735.97
2022-12-18T21:42:10.611Z,101691.09
2022-12-18T21:44:16.411Z,101717.69
2022-12-18T21:46:19.848Z,101713.19
2022-12-18T21:48:23.360Z,101714.59
2022-12-18T21:50:26.699Z,101714.44
2022-12-18T21:52:32.217Z,101705.88
2022-12-18T21:54:36.257Z,101711.13
2022-12-18T21:56:48.307Z,101712.03
2022-12-18T21:58:56.957Z,101703.59
2022-12-18T22:01:01.032Z,101699.50
2022-12-18T22:03:18.763Z,101683.09
2022-12-18T22:05:23.249Z,101693.63
2022-12-18T22:07:26.599Z,101686.84
2022-12-18T22:09:29.911Z,101685.94
2022-12-18T22:11:33.483Z,101689.88
2022-12-18T22:13:36.742Z,101682.47
2022-12-18T22:15:41.505Z,101677.63
2022-12-18T22:17:45.056Z,101667.50
2022-12-18T22:19:48.474Z,101672.88
2022-12-18T22:21:52.373Z,101661.84
2022-12-18T22:23:57.101Z,101655.69
2022-12-18T22:26:10.712Z,101656.59
2022-12-18T22:28:31.772Z,101648.44
2022-12-18T22:30:35.280Z,101651.88
2022-12-18T22:32:40.310Z,101643.59
2022-12-18T22:34:43.709Z,101642.69
2022-12-18T22:36:49.084Z,101640.59
2022-12-18T22:38:52.337Z,101641.88
2022-12-18T22:40:57.185Z,101646.00
2022-12-18T22:43:00.509Z,101633.81
2022-12-18T22:45:03.793Z,101641.78
2022-12-18T22:47:07.538Z,101578.06
2022-12-18T22:49:14.095Z,101634.50
2022-12-18T22:51:20.159Z,101622.34
2022-12-18T22:53:23.553Z,101630.19
2022-12-18T22:55:26.841Z,101625.53
2022-12-18T22:57:30.112Z,101626.19
2022-12-18T22:59:33.407Z,101617.88
2022-12-18T23:01:36.996Z,101613.75
2022-12-18T23:03:42.464Z,101621.84
2022-12-18T23:05:47.742Z,101610.44
2022-12-18T23:07:51.038Z,101602.25
2022-12-18T23:10:00.729Z,101609.81
2022-12-18T23:12:05.443Z,101613.91
2022-12-18T23:14:08.729Z,101605.59
2022-12-18T23:16:15.707Z,101603.28
2022-12-18T23:18:19.241Z,101597.41
2022-12-18T23:20:22.504Z,101591.91
2022-12-18T23:22:27.541Z,101586.66
2022-12-18T23:24:31.021Z,101587.78
2022-12-18T23:26:38.198Z,101582.19
2022-12-18T23:28:41.980Z,101572.44
2022-12-18T23:30:45.380Z,101577.94
2022-12-18T23:32:48.709Z,101571.81
2022-12-18T23:34:51.988Z,101570.41
2022-12-18T23:36:56.207Z,101561.19
2022-12-18T23:39:02.100Z,101546.72
2022-12-18T23:41:10.325Z,101550.28
2022-12-18T23:43:13.667Z,101523.00
2022-12-18T23:45:18.148Z,101540.69
2022-12-18T23:47:21.918Z,101548.47
2022-12-18T23:49:25.208Z,101554.41
2022-12-18T23:51:29.935Z,101548.13
2022-12-18T23:53:33.260Z,101547.09
2022-12-18T23:55:41.562Z,101541.97
2022-12-18T23:57:44.896Z,101532.09
2022-12-18T23:59:48.160Z,101533.91
